createdAt,value
2022-08-07T00:00:25.057Z,73.46
2022-08-07T00:02:53.783Z,75.04
2022-08-07T00:05:23.585Z,75.15
2022-08-07T00:08:00.141Z,75.16
2022-08-07T00:10:31.375Z,75.17
2022-08-07T00:13:09.611Z,75.09
2022-08-07T00:15:46.802Z,75.88
2022-08-07T00:18:24.565Z,75.91
2022-08-07T00:21:01.531Z,75.50
2022-08-07T00:23:30.747Z,75.71
2022-08-07T00:26:02.865Z,75.32
2022-08-07T00:28:45.711Z,75.44
2022-08-07T00:31:16.660Z,76.04
2022-08-07T00:33:47.411Z,76.44
2022-08-07T00:36:14.935Z,75.95
2022-08-07T00:38:43.837Z,76.48
2022-08-07T00:41:14.818Z,76.61
2022-08-07T00:44:01.340Z,76.41
2022-08-07T00:46:32.946Z,76.09
2022-08-07T00:49:03.003Z,75.58
2022-08-07T00:51:58.546Z,75.26
2022-08-07T00:54:19.628Z,75.11
2022-08-07T00:56:49.709Z,74.87
2022-08-07T00:59:35.224Z,74.50
2022-08-07T01:02:03.508Z,73.84
2022-08-07T01:04:35.509Z,73.47
2022-08-07T01:07:09.972Z,73.08
2022-08-07T01:10:06.253Z,73.15
2022-08-07T01:12:30.139Z,73.68
2022-08-07T01:15:01.648Z,74.02
2022-08-07T01:17:32.061Z,74.08
2022-08-07T01:20:10.178Z,74.57
2022-08-07T01:22:53.966Z,74.66
2022-08-07T01:25:54.026Z,74.94
2022-08-07T01:28:15.604Z,74.95
2022-08-07T01:30:43.918Z,75.12
2022-08-07T01:33:12.194Z,75.38
2022-08-07T01:35:53.807Z,75.05
2022-08-07T01:38:24.700Z,75.56
2022-08-07T01:40:58.714Z,75.69
2022-08-07T01:43:34.578Z,75.67
2022-08-07T01:46:05.743Z,75.59
2022-08-07T01:48:35.773Z,75.72
2022-08-07T01:51:24.559Z,75.59
2022-08-07T01:54:12.659Z,75.88
2022-08-07T01:56:55.294Z,75.72
2022-08-07T01:59:31.187Z,76.27
2022-08-07T02:02:10.379Z,76.45
2022-08-07T02:04:56.322Z,76.11
2022-08-07T02:07:45.075Z,76.29
2022-08-07T02:10:17.886Z,75.95
2022-08-07T02:12:50.029Z,76.37
2022-08-07T02:15:22.969Z,76.12
2022-08-07T02:17:51.995Z,76.49
2022-08-07T02:20:23.693Z,76.69
2022-08-07T02:22:57.601Z,76.80
2022-08-07T02:25:32.211Z,76.99
2022-08-07T02:28:24.282Z,76.27
2022-08-07T02:30:53.102Z,76.33
2022-08-07T02:33:20.797Z,76.20
2022-08-07T02:36:28.753Z,75.95
2022-08-07T02:38:39.658Z,76.07
2022-08-07T02:41:21.581Z,76.49
2022-08-07T02:43:49.457Z,76.75
2022-08-07T02:46:18.568Z,77.19
2022-08-07T02:48:54.733Z,76.45
2022-08-07T02:51:42.095Z,76.61
2022-08-07T02:54:13.925Z,76.50
2022-08-07T02:56:42.321Z,76.97
2022-08-07T02:59:11.811Z,76.94
2022-08-07T03:01:40.814Z,75.94
2022-08-07T03:04:12.492Z,76.82
2022-08-07T03:06:44.846Z,76.53
2022-08-07T03:09:13.886Z,76.72
2022-08-07T03:11:52.407Z,76.65
2022-08-07T03:14:27.784Z,76.79
2022-08-07T03:16:56.516Z,76.57
2022-08-07T03:19:28.980Z,76.14
2022-08-07T03:22:06.093Z,76.56
2022-08-07T03:24:34.348Z,76.10
2022-08-07T03:27:09.087Z,76.24
2022-08-07T03:29:44.652Z,75.79
2022-08-07T03:32:19.311Z,75.64
2022-08-07T03:35:16.801Z,75.81
2022-08-07T03:37:46.392Z,75.53
2022-08-07T03:40:22.861Z,75.28
2022-08-07T03:42:51.817Z,75.23
2022-08-07T03:45:29.971Z,74.92
2022-08-07T03:47:58.985Z,74.88
2022-08-07T03:50:28.996Z,75.19
2022-08-07T03:52:59.325Z,75.28
2022-08-07T03:55:57.632Z,74.86
2022-08-07T03:59:06.670Z,74.75
2022-08-07T04:01:07.360Z,74.71
2022-08-07T04:03:49.824Z,74.47
2022-08-07T04:06:37.158Z,74.62
2022-08-07T04:09:05.743Z,74.77
2022-08-07T04:12:27.091Z,74.63
2022-08-07T04:14:38.762Z,74.18
2022-08-07T04:17:20.175Z,73.82
2022-08-07T04:19:54.518Z,73.94
2022-08-07T04:22:27.418Z,73.65
2022-08-07T04:24:58.645Z,73.75
2022-08-07T04:27:27.902Z,73.71
2022-08-07T04:30:01.127Z,73.82
2022-08-07T04:32:34.364Z,73.84
2022-08-07T04:35:07.227Z,73.82
2022-08-07T04:38:01.221Z,73.86
2022-08-07T04:40:29.566Z,74.49
2022-08-07T04:43:01.712Z,73.15
2022-08-07T04:45:57.173Z,73.23
2022-08-07T04:48:44.971Z,72.87
2022-08-07T04:51:53.960Z,71.54
2022-08-07T04:54:50.697Z,71.37
2022-08-07T04:58:23.767Z,70.52
2022-08-07T05:00:30.082Z,70.29
2022-08-07T05:04:01.144Z,69.89
2022-08-07T05:06:28.290Z,69.25
2022-08-07T05:09:45.645Z,69.30
2022-08-07T05:12:26.963Z,69.13
2022-08-07T05:15:16.091Z,68.72
2022-08-07T05:17:56.659Z,68.28
2022-08-07T05:20:33.806Z,67.69
2022-08-07T05:23:15.472Z,66.53
2022-08-07T05:26:13.091Z,63.95
2022-08-07T05:28:34.967Z,64.27
2022-08-07T05:31:03.653Z,63.73
2022-08-07T05:33:35.649Z,63.49
2022-08-07T05:36:07.166Z,63.29
2022-08-07T05:39:00.201Z,63.77
2022-08-07T05:42:02.710Z,63.05
2022-08-07T05:44:29.203Z,61.63
2022-08-07T05:46:57.935Z,60.60
2022-08-07T05:49:27.326Z,59.78
2022-08-07T05:52:11.678Z,60.54
2022-08-07T05:54:44.346Z,59.32
2022-08-07T05:57:21.172Z,59.33
2022-08-07T05:59:55.809Z,58.28
2022-08-07T06:02:29.157Z,58.16
2022-08-07T06:05:03.615Z,57.16
2022-08-07T06:08:13.834Z,56.97
2022-08-07T06:10:20.887Z,56.68
2022-08-07T06:12:49.703Z,56.42
2022-08-07T06:15:19.960Z,56.94
2022-08-07T06:17:53.567Z,56.43
2022-08-07T06:20:31.742Z,56.68
2022-08-07T06:23:02.255Z,57.66
2022-08-07T06:25:54.630Z,58.37
2022-08-07T06:28:28.161Z,59.76
2022-08-07T06:30:56.497Z,60.81
2022-08-07T06:33:25.592Z,60.99
2022-08-07T06:36:12.314Z,61.00
2022-08-07T06:38:59.433Z,61.64
2022-08-07T06:42:04.592Z,61.82
2022-08-07T06:44:33.942Z,62.71
2022-08-07T06:47:12.571Z,63.07
2022-08-07T06:49:52.186Z,63.64
2022-08-07T06:52:32.000Z,64.17
2022-08-07T06:55:32.083Z,64.38
2022-08-07T06:58:00.566Z,64.70
2022-08-07T07:00:31.289Z,64.80
2022-08-07T07:03:00.908Z,64.82
2022-08-07T07:06:02.440Z,64.66
2022-08-07T07:08:18.519Z,64.64
2022-08-07T07:10:56.499Z,64.51
2022-08-07T07:13:56.131Z,64.13
2022-08-07T07:16:27.590Z,63.43
2022-08-07T07:19:33.887Z,63.45
2022-08-07T07:22:05.490Z,62.37
2022-08-07T07:24:43.238Z,61.75
2022-08-07T07:27:35.525Z,60.60
2022-08-07T07:30:32.575Z,60.85
2022-08-07T07:33:06.502Z,59.96
2022-08-07T07:35:44.025Z,59.81
2022-08-07T07:38:25.951Z,59.82
2022-08-07T07:41:02.244Z,60.28
2022-08-07T07:43:47.753Z,60.15
2022-08-07T07:46:39.873Z,59.96
2022-08-07T07:50:35.564Z,60.34
2022-08-07T07:52:00.380Z,59.89
2022-08-07T07:54:28.338Z,58.79
2022-08-07T07:56:57.578Z,58.68
2022-08-07T07:59:52.530Z,58.89
2022-08-07T08:02:34.204Z,57.51
2022-08-07T08:05:14.486Z,57.72
2022-08-07T08:07:51.621Z,57.36
2022-08-07T08:10:37.962Z,57.20
2022-08-07T08:13:10.525Z,55.76
2022-08-07T08:15:57.622Z,56.32
2022-08-07T08:18:28.713Z,55.70
2022-08-07T08:21:00.353Z,55.96
2022-08-07T08:23:51.921Z,55.30
2022-08-07T08:26:38.190Z,55.55
2022-08-07T08:29:06.497Z,56.08
2022-08-07T08:31:59.087Z,54.94
2022-08-07T08:34:29.051Z,55.71
2022-08-07T08:36:58.438Z,54.57
2022-08-07T08:39:39.667Z,54.35
2022-08-07T08:42:22.506Z,54.05
2022-08-07T08:45:42.059Z,53.91
2022-08-07T08:48:32.534Z,52.91
2022-08-07T08:51:23.311Z,51.68
2022-08-07T08:54:16.116Z,48.78
2022-08-07T08:56:48.841Z,45.99
2022-08-07T08:59:42.086Z,46.46
2022-08-07T09:02:36.554Z,46.60
2022-08-07T09:05:32.081Z,45.94
2022-08-07T09:08:10.386Z,45.20
2022-08-07T09:11:24.977Z,45.15
2022-08-07T09:14:27.476Z,45.57
2022-08-07T09:18:00.351Z,45.70
2022-08-07T09:20:35.974Z,45.35
2022-08-07T09:24:32.257Z,43.58
2022-08-07T09:26:27.851Z,44.95
2022-08-07T09:30:06.114Z,44.62
2022-08-07T09:32:17.102Z,42.68
2022-08-07T09:35:04.579Z,43.44
2022-08-07T09:38:10.560Z,40.61
2022-08-07T09:41:05.981Z,42.38
2022-08-07T09:44:05.404Z,42.22
2022-08-07T09:47:42.689Z,43.39
2022-08-07T09:50:01.015Z,43.34
2022-08-07T09:52:42.465Z,42.86
2022-08-07T09:55:29.240Z,42.06
2022-08-07T09:58:21.413Z,42.81
2022-08-07T10:01:51.064Z,43.28
2022-08-07T10:04:39.639Z,42.62
2022-08-07T10:07:39.887Z,42.13
2022-08-07T10:10:22.877Z,43.19
2022-08-07T10:13:02.210Z,43.00
2022-08-07T10:15:30.464Z,43.44
2022-08-07T10:18:50.735Z,44.39
2022-08-07T10:22:12.137Z,43.11
2022-08-07T10:24:22.276Z,43.11
2022-08-07T10:27:30.258Z,42.30
2022-08-07T10:30:17.866Z,41.67
2022-08-07T10:32:52.451Z,39.52
2022-08-07T10:35:55.325Z,38.65
2022-08-07T10:39:01.119Z,37.22
2022-08-07T10:41:47.454Z,36.63
2022-08-07T10:45:04.242Z,34.77
2022-08-07T10:47:53.906Z,34.98
2022-08-07T10:50:42.469Z,34.00
2022-08-07T10:53:26.464Z,33.99
2022-08-07T10:56:04.880Z,35.81
2022-08-07T10:58:46.120Z,36.52
2022-08-07T11:01:51.405Z,36.96
2022-08-07T11:04:41.009Z,38.32
2022-08-07T11:07:56.296Z,36.73
2022-08-07T11:10:57.924Z,35.83
2022-08-07T11:14:42.344Z,36.05
2022-08-07T11:16:50.738Z,35.14
2022-08-07T11:19:27.251Z,33.73
2022-08-07T11:22:26.671Z,32.55
2022-08-07T11:25:23.882Z,31.63
2022-08-07T11:28:09.244Z,31.32
2022-08-07T11:31:08.904Z,30.98
2022-08-07T11:34:00.062Z,29.90
2022-08-07T11:37:00.360Z,30.64
2022-08-07T11:39:39.866Z,31.52
2022-08-07T11:43:01.813Z,31.45
2022-08-07T11:45:49.933Z,31.00
2022-08-07T11:48:44.161Z,29.37
2022-08-07T11:51:44.716Z,30.51
2022-08-07T11:54:34.234Z,35.18
2022-08-07T11:57:20.710Z,38.66
2022-08-07T12:00:19.237Z,41.87
2022-08-07T12:03:45.719Z,43.56
2022-08-07T12:06:39.808Z,45.24
2022-08-07T12:09:46.988Z,48.00
2022-08-07T12:12:28.482Z,48.94
2022-08-07T12:15:01.436Z,50.15
2022-08-07T12:17:58.443Z,51.70
2022-08-07T12:20:45.107Z,51.91
2022-08-07T12:24:07.690Z,52.81
2022-08-07T12:26:54.045Z,53.41
2022-08-07T12:29:38.016Z,54.24
2022-08-07T12:32:20.892Z,54.10
2022-08-07T12:34:55.864Z,54.19
2022-08-07T12:37:28.268Z,53.22
2022-08-07T12:40:43.684Z,53.51
2022-08-07T12:43:09.663Z,55.03
2022-08-07T12:45:55.336Z,56.63
2022-08-07T12:48:55.101Z,58.85
2022-08-07T12:51:33.359Z,60.41
2022-08-07T12:54:37.265Z,60.20
2022-08-07T12:57:09.542Z,61.24
2022-08-07T12:59:54.235Z,62.03
2022-08-07T13:02:37.354Z,62.37
2022-08-07T13:06:02.554Z,62.25
2022-08-07T13:09:02.727Z,62.73
2022-08-07T13:12:03.332Z,62.53
2022-08-07T13:15:07.374Z,63.91
2022-08-07T13:17:46.573Z,64.70
2022-08-07T13:20:27.839Z,64.30
2022-08-07T13:23:09.829Z,63.59
2022-08-07T13:26:03.193Z,62.97
2022-08-07T13:28:58.468Z,62.52
2022-08-07T13:32:31.030Z,61.94
2022-08-07T13:35:08.541Z,61.62
2022-08-07T13:38:01.125Z,61.91
2022-08-07T13:40:56.100Z,62.03
2022-08-07T13:43:23.266Z,61.95
2022-08-07T13:46:11.182Z,61.66
2022-08-07T13:48:58.603Z,60.33
2022-08-07T13:52:23.152Z,59.46
2022-08-07T13:54:23.797Z,58.30
2022-08-07T13:56:56.290Z,57.29
2022-08-07T13:59:33.177Z,58.21
2022-08-07T14:02:13.346Z,57.69
2022-08-07T14:04:54.829Z,57.81
2022-08-07T14:07:27.816Z,57.14
2022-08-07T14:10:12.218Z,57.04
2022-08-07T14:12:55.687Z,57.55
2022-08-07T14:15:42.731Z,57.68
2022-08-07T14:18:30.665Z,57.63
2022-08-07T14:22:01.395Z,57.46
2022-08-07T14:24:14.823Z,58.28
2022-08-07T14:26:52.614Z,58.69
2022-08-07T14:30:06.412Z,59.09
2022-08-07T14:32:15.234Z,59.65
2022-08-07T14:34:47.129Z,59.93
2022-08-07T14:37:17.743Z,59.51
2022-08-07T14:40:16.664Z,59.27
2022-08-07T14:43:01.383Z,59.13
2022-08-07T14:45:46.617Z,59.14
2022-08-07T14:48:20.366Z,57.57
2022-08-07T14:50:56.468Z,56.47
2022-08-07T14:54:08.661Z,55.49
2022-08-07T14:56:15.976Z,54.79
2022-08-07T14:59:02.177Z,55.23
2022-08-07T15:01:42.353Z,56.00
2022-08-07T15:04:12.872Z,56.02
2022-08-07T15:06:47.833Z,56.06
2022-08-07T15:09:59.609Z,56.26
2022-08-07T15:12:25.866Z,55.56
2022-08-07T15:15:07.862Z,55.42
2022-08-07T15:20:38.590Z,54.64
2022-08-07T15:25:03.114Z,55.89
2022-08-07T15:30:09.462Z,56.35
2022-08-07T15:32:01.318Z,56.46
2022-08-07T15:34:37.828Z,56.47
2022-08-07T15:40:16.033Z,56.46
2022-08-07T15:46:31.105Z,56.93
2022-08-07T15:49:13.229Z,57.70
2022-08-07T15:54:34.731Z,58.29
2022-08-07T15:57:39.689Z,58.13
2022-08-07T15:59:59.522Z,58.69
2022-08-07T16:02:38.642Z,58.86
2022-08-07T16:05:20.621Z,58.40
2022-08-07T16:08:31.754Z,58.53
2022-08-07T16:11:26.251Z,58.65
2022-08-07T16:14:03.946Z,59.06
2022-08-07T16:16:47.946Z,59.62
2022-08-07T16:19:42.838Z,60.11
2022-08-07T16:22:55.150Z,59.90
2022-08-07T16:25:55.505Z,59.85
2022-08-07T16:30:06.926Z,59.87
2022-08-07T16:32:06.199Z,60.26
2022-08-07T16:34:38.868Z,60.41
2022-08-07T16:38:04.884Z,61.07
2022-08-07T16:40:28.140Z,61.95
2022-08-07T16:43:23.230Z,61.33
2022-08-07T16:47:04.832Z,62.20
2022-08-07T16:50:29.278Z,62.01
2022-08-07T16:52:51.274Z,62.76
2022-08-07T16:55:47.968Z,63.19
2022-08-07T16:59:11.294Z,63.59
2022-08-07T17:01:59.722Z,63.48
2022-08-07T17:06:19.514Z,63.08
2022-08-07T17:08:05.122Z,63.91
2022-08-07T17:10:54.926Z,64.26
2022-08-07T17:13:38.741Z,63.22
2022-08-07T17:16:43.603Z,63.89
2022-08-07T17:20:02.990Z,64.61
2022-08-07T17:23:06.088Z,64.02
2022-08-07T17:26:23.999Z,65.06
2022-08-07T17:28:57.821Z,64.60
2022-08-07T17:32:06.295Z,64.11
2022-08-07T17:35:33.070Z,64.42
2022-08-07T17:38:05.066Z,64.57
2022-08-07T17:40:30.393Z,64.28
2022-08-07T17:44:00.923Z,64.35
2022-08-07T17:46:16.168Z,62.89
2022-08-07T17:49:23.860Z,63.67
2022-08-07T17:52:19.640Z,63.33
2022-08-07T17:54:55.550Z,64.04
2022-08-07T17:57:58.333Z,64.36
2022-08-07T18:00:33.282Z,64.55
2022-08-07T18:03:20.889Z,64.40
2022-08-07T18:06:02.772Z,64.00
2022-08-07T18:09:01.474Z,64.51
2022-08-07T18:12:30.491Z,64.23
2022-08-07T18:15:09.809Z,64.89
2022-08-07T18:18:44.994Z,64.87
2022-08-07T18:21:05.946Z,65.08
2022-08-07T18:24:12.323Z,63.49
2022-08-07T18:27:18.291Z,62.90
2022-08-07T18:30:32.604Z,62.48
2022-08-07T18:33:24.746Z,63.43
2022-08-07T18:36:08.013Z,63.94
2022-08-07T18:40:07.245Z,65.38
2022-08-07T18:42:12.823Z,68.13
2022-08-07T18:45:43.112Z,69.03
2022-08-07T18:47:50.480Z,70.36
2022-08-07T18:50:46.444Z,70.31
2022-08-07T18:53:36.634Z,70.89
2022-08-07T18:56:57.858Z,71.59
2022-08-07T18:59:58.993Z,72.72
2022-08-07T19:03:15.914Z,73.47
2022-08-07T19:06:02.331Z,74.20
2022-08-07T19:08:58.976Z,74.51
2022-08-07T19:12:04.042Z,74.89
2022-08-07T19:15:01.457Z,75.25
2022-08-07T19:18:11.635Z,76.47
2022-08-07T19:21:09.288Z,76.80
2022-08-07T19:23:58.715Z,77.02
2022-08-07T19:27:08.857Z,76.23
2022-08-07T19:31:00.217Z,76.29
2022-08-07T19:32:28.736Z,76.08
2022-08-07T19:35:07.129Z,76.15
2022-08-07T19:37:57.151Z,76.04
2022-08-07T19:40:31.307Z,75.94
2022-08-07T19:43:08.765Z,76.35
2022-08-07T19:46:05.750Z,76.37
2022-08-07T19:48:42.901Z,76.42
2022-08-07T19:51:19.537Z,76.23
2022-08-07T19:54:30.887Z,76.04
2022-08-07T19:57:52.006Z,76.16
2022-08-07T19:59:41.564Z,75.51
2022-08-07T20:02:19.040Z,75.83
2022-08-07T20:04:49.457Z,75.89
2022-08-07T20:07:23.721Z,76.27
2022-08-07T20:10:35.535Z,76.00
2022-08-07T20:12:45.691Z,75.99
2022-08-07T20:15:22.370Z,76.35
2022-08-07T20:18:01.535Z,76.89
2022-08-07T20:20:32.766Z,77.43
2022-08-07T20:23:22.833Z,77.35
2022-08-07T20:25:53.194Z,77.53
2022-08-07T20:28:21.028Z,77.04
2022-08-07T20:30:58.827Z,78.24
2022-08-07T20:33:37.757Z,80.09
2022-08-07T20:36:08.103Z,80.34
2022-08-07T20:38:53.615Z,82.83
2022-08-07T20:41:34.081Z,83.00
2022-08-07T20:44:12.558Z,86.73
2022-08-07T20:46:43.731Z,90.83
2022-08-07T20:50:00.291Z,92.55
2022-08-07T20:52:09.382Z,92.41
2022-08-07T20:54:53.348Z,91.11
2022-08-07T20:57:28.096Z,92.36
2022-08-07T21:00:06.310Z,93.77
2022-08-07T21:03:00.904Z,93.56
2022-08-07T21:05:52.425Z,95.87
2022-08-07T21:08:32.296Z,98.36
2022-08-07T21:11:07.445Z,99.72
2022-08-07T21:13:57.140Z,100.00
2022-08-07T21:17:06.800Z,100.00
2022-08-07T21:20:00.972Z,100.00
2022-08-07T21:22:28.234Z,100.00
2022-08-07T21:25:19.750Z,100.00
2022-08-07T21:28:02.151Z,98.74
2022-08-07T21:30:39.401Z,97.87
2022-08-07T21:33:22.149Z,98.51
2022-08-07T21:36:31.225Z,98.60
2022-08-07T21:39:45.378Z,100.00
2022-08-07T21:42:46.672Z,100.00
2022-08-07T21:46:07.847Z,100.00
2022-08-07T21:48:44.025Z,100.00
2022-08-07T21:51:33.768Z,100.00
2022-08-07T21:54:35.078Z,100.00
2022-08-07T21:57:31.097Z,100.00
2022-08-07T22:00:25.159Z,100.00
2022-08-07T22:03:17.540Z,100.00
2022-08-07T22:06:04.001Z,100.00
2022-08-07T22:08:44.711Z,100.00
2022-08-07T22:11:17.714Z,100.00
2022-08-07T22:13:55.310Z,100.00
2022-08-07T22:16:47.831Z,100.00
2022-08-07T22:19:36.911Z,100.00
2022-08-07T22:22:21.268Z,100.00
2022-08-07T22:25:02.978Z,100.00
2022-08-07T22:28:31.585Z,100.00
2022-08-07T22:31:12.396Z,100.00
2022-08-07T22:34:18.172Z,100.00
2022-08-07T22:37:12.509Z,100.00
2022-08-07T22:40:01.068Z,100.00
2022-08-07T22:42:35.236Z,100.00
2022-08-07T22:45:10.955Z,100.00
2022-08-07T22:48:01.062Z,100.00
2022-08-07T22:50:53.433Z,100.00
2022-08-07T22:54:06.641Z,100.00
2022-08-07T22:57:00.979Z,100.00
2022-08-07T22:59:49.837Z,100.00
2022-08-07T23:02:58.559Z,100.00
2022-08-07T23:06:07.613Z,99.03
2022-08-07T23:10:00.897Z,100.00
2022-08-07T23:12:06.481Z,100.00
2022-08-07T23:16:04.484Z,100.00
2022-08-07T23:18:23.153Z,100.00
2022-08-07T23:21:07.606Z,100.00
2022-08-07T23:24:18.552Z,100.00
2022-08-07T23:27:07.866Z,100.00
2022-08-07T23:30:38.709Z,100.00
2022-08-07T23:34:34.806Z,100.00
2022-08-07T23:36:17.035Z,100.00
2022-08-07T23:39:09.369Z,100.00
2022-08-07T23:42:04.672Z,100.00
2022-08-07T23:44:51.450Z,100.00
2022-08-07T23:47:42.275Z,100.00
2022-08-07T23:50:22.569Z,100.00
2022-08-07T23:53:17.043Z,100.00
2022-08-07T23:56:20.805Z,100.00
2022-08-07T23:59:10.652Z,100.00
